sensor_id;sensor_type;location;lat;lon;timestamp;temperature;humidity
6988;DHT22;3534;49.960;8.018;2023-10-13T00:01:53;18.20;99.90
6988;DHT22;3534;49.960;8.018;2023-10-13T00:04:20;18.10;99.90
6988;DHT22;3534;49.960;8.018;2023-10-13T00:06:51;18.10;99.90
6988;DHT22;3534;49.960;8.018;2023-10-13T00:09:18;18.20;99.90
6988;DHT22;3534;49.960;8.018;2023-10-13T00:11:49;18.10;99.90
6988;DHT22;3534;49.960;8.018;2023-10-13T00:14:18;18.10;99.90
6988;DHT22;3534;49.960;8.018;2023-10-13T00:16:46;18.10;99.90
6988;DHT22;3534;49.960;8.018;2023-10-13T00:19:27;18.10;99.90
6988;DHT22;3534;49.960;8.018;2023-10-13T00:21:55;18.10;99.90
6988;DHT22;3534;49.960;8.018;2023-10-13T00:24:34;18.10;99.90
6988;DHT22;3534;49.960;8.018;2023-10-13T00:27:09;18.10;99.90
6988;DHT22;3534;49.960;8.018;2023-10-13T00:29:50;18.10;99.90
6988;DHT22;3534;49.960;8.018;2023-10-13T00:32:16;18.10;99.90
6988;DHT22;3534;49.960;8.018;2023-10-13T00:34:45;18.10;99.90
6988;DHT22;3534;49.960;8.018;2023-10-13T00:37:13;18.10;99.90
6988;DHT22;3534;49.960;8.018;2023-10-13T00:39:53;18.10;99.90
6988;DHT22;3534;49.960;8.018;2023-10-13T00:42:22;18.10;99.90
6988;DHT22;3534;49.960;8.018;2023-10-13T00:45:10;18.10;99.90
6988;DHT22;3534;49.960;8.018;2023-10-13T00:47:42;18.10;99.90
6988;DHT22;3534;49.960;8.018;2023-10-13T00:50:15;18.10;99.90
6988;DHT22;3534;49.960;8.018;2023-10-13T00:52:46;18.10;99.90
6988;DHT22;3534;49.960;8.018;2023-10-13T00:55:14;18.10;99.90
6988;DHT22;3534;49.960;8.018;2023-10-13T00:57:42;18.10;99.90
6988;DHT22;3534;49.960;8.018;2023-10-13T01:00:09;18.10;99.90
6988;DHT22;3534;49.960;8.018;2023-10-13T01:02:44;18.10;99.90
6988;DHT22;3534;49.960;8.018;2023-10-13T01:05:11;18.10;99.90
6988;DHT22;3534;49.960;8.018;2023-10-13T01:07:46;18.00;99.90
6988;DHT22;3534;49.960;8.018;2023-10-13T01:10:16;18.00;99.90
6988;DHT22;3534;49.960;8.018;2023-10-13T01:12:42;18.00;99.90
6988;DHT22;3534;49.960;8.018;2023-10-13T01:15:09;18.00;99.90
6988;DHT22;3534;49.960;8.018;2023-10-13T01:17:38;18.00;99.90
6988;DHT22;3534;49.960;8.018;2023-10-13T01:20:05;18.00;99.90
6988;DHT22;3534;49.960;8.018;2023-10-13T01:22:33;18.00;99.90
6988;DHT22;3534;49.960;8.018;2023-10-13T01:25:03;18.00;99.90
6988;DHT22;3534;49.960;8.018;2023-10-13T01:27:31;18.00;99.90
6988;DHT22;3534;49.960;8.018;2023-10-13T01:29:57;18.00;99.90
6988;DHT22;3534;49.960;8.018;2023-10-13T01:32:30;17.90;99.90
6988;DHT22;3534;49.960;8.018;2023-10-13T01:34:57;17.90;99.90
6988;DHT22;3534;49.960;8.018;2023-10-13T01:37:30;17.90;99.90
6988;DHT22;3534;49.960;8.018;2023-10-13T01:39:57;17.90;99.90
6988;DHT22;3534;49.960;8.018;2023-10-13T01:42:24;17.90;99.90
6988;DHT22;3534;49.960;8.018;2023-10-13T01:44:51;17.90;99.90
6988;DHT22;3534;49.960;8.018;2023-10-13T01:47:23;17.90;99.90
6988;DHT22;3534;49.960;8.018;2023-10-13T01:49:49;17.90;99.90
6988;DHT22;3534;49.960;8.018;2023-10-13T01:52:16;17.90;99.90
6988;DHT22;3534;49.960;8.018;2023-10-13T01:54:42;17.90;99.90
6988;DHT22;3534;49.960;8.018;2023-10-13T01:57:10;17.90;99.90
6988;DHT22;3534;49.960;8.018;2023-10-13T01:59:40;17.90;99.90
6988;DHT22;3534;49.960;8.018;2023-10-13T02:02:09;17.90;99.90
6988;DHT22;3534;49.960;8.018;2023-10-13T02:04:38;17.90;99.90
6988;DHT22;3534;49.960;8.018;2023-10-13T02:07:08;17.80;99.90
6988;DHT22;3534;49.960;8.018;2023-10-13T02:09:33;17.70;99.90
6988;DHT22;3534;49.960;8.018;2023-10-13T02:12:02;17.70;99.90
6988;DHT22;3534;49.960;8.018;2023-10-13T02:14:28;17.70;99.90
6988;DHT22;3534;49.960;8.018;2023-10-13T02:16:59;17.70;99.90
6988;DHT22;3534;49.960;8.018;2023-10-13T02:19:38;17.80;99.90
6988;DHT22;3534;49.960;8.018;2023-10-13T02:22:11;17.80;99.90
6988;DHT22;3534;49.960;8.018;2023-10-13T02:24:37;17.80;99.90
6988;DHT22;3534;49.960;8.018;2023-10-13T02:27:06;17.80;99.90
6988;DHT22;3534;49.960;8.018;2023-10-13T02:29:38;17.80;99.90
6988;DHT22;3534;49.960;8.018;2023-10-13T02:32:07;17.80;99.90
6988;DHT22;3534;49.960;8.018;2023-10-13T02:34:43;17.80;99.90
6988;DHT22;3534;49.960;8.018;2023-10-13T02:37:10;17.80;99.90
6988;DHT22;3534;49.960;8.018;2023-10-13T02:39:36;17.70;99.90
6988;DHT22;3534;49.960;8.018;2023-10-13T02:42:06;17.70;99.90
6988;DHT22;3534;49.960;8.018;2023-10-13T02:44:32;17.70;99.90
6988;DHT22;3534;49.960;8.018;2023-10-13T02:47:02;17.70;99.90
6988;DHT22;3534;49.960;8.018;2023-10-13T02:49:32;17.60;99.90
6988;DHT22;3534;49.960;8.018;2023-10-13T02:52:00;17.60;99.90
6988;DHT22;3534;49.960;8.018;2023-10-13T02:54:31;17.60;99.90
6988;DHT22;3534;49.960;8.018;2023-10-13T02:57:05;17.60;99.90
6988;DHT22;3534;49.960;8.018;2023-10-13T02:59:31;17.70;99.90
6988;DHT22;3534;49.960;8.018;2023-10-13T03:02:05;17.70;99.90
6988;DHT22;3534;49.960;8.018;2023-10-13T03:04:44;17.70;99.90
6988;DHT22;3534;49.960;8.018;2023-10-13T03:07:11;17.70;99.90
6988;DHT22;3534;49.960;8.018;2023-10-13T03:09:41;17.70;99.90
6988;DHT22;3534;49.960;8.018;2023-10-13T03:12:16;17.70;99.90
6988;DHT22;3534;49.960;8.018;2023-10-13T03:14:41;17.70;99.90
6988;DHT22;3534;49.960;8.018;2023-10-13T03:17:13;17.70;99.90
6988;DHT22;3534;49.960;8.018;2023-10-13T03:19:44;17.70;99.90
6988;DHT22;3534;49.960;8.018;2023-10-13T03:22:16;17.70;99.90
6988;DHT22;3534;49.960;8.018;2023-10-13T03:24:42;17.70;99.90
6988;DHT22;3534;49.960;8.018;2023-10-13T03:27:12;17.60;99.90
6988;DHT22;3534;49.960;8.018;2023-10-13T03:29:42;17.70;99.90
6988;DHT22;3534;49.960;8.018;2023-10-13T03:32:10;17.60;99.90
6988;DHT22;3534;49.960;8.018;2023-10-13T03:34:41;17.60;99.90
6988;DHT22;3534;49.960;8.018;2023-10-13T03:37:17;17.60;99.90
6988;DHT22;3534;49.960;8.018;2023-10-13T03:39:45;17.60;99.90
6988;DHT22;3534;49.960;8.018;2023-10-13T03:42:12;17.60;99.90
6988;DHT22;3534;49.960;8.018;2023-10-13T03:44:44;17.60;99.90
6988;DHT22;3534;49.960;8.018;2023-10-13T03:47:12;17.60;99.90
6988;DHT22;3534;49.960;8.018;2023-10-13T03:49:52;17.60;99.90
6988;DHT22;3534;49.960;8.018;2023-10-13T03:52:40;17.60;99.90
6988;DHT22;3534;49.960;8.018;2023-10-13T03:55:07;17.60;99.90
6988;DHT22;3534;49.960;8.018;2023-10-13T03:57:42;17.50;99.90
6988;DHT22;3534;49.960;8.018;2023-10-13T04:00:12;17.50;99.90
6988;DHT22;3534;49.960;8.018;2023-10-13T04:02:47;17.50;99.90
6988;DHT22;3534;49.960;8.018;2023-10-13T04:05:19;17.50;99.90
6988;DHT22;3534;49.960;8.018;2023-10-13T04:08:06;17.50;99.90
6988;DHT22;3534;49.960;8.018;2023-10-13T04:10:52;17.50;99.90
6988;DHT22;3534;49.960;8.018;2023-10-13T04:13:36;17.50;99.90
6988;DHT22;3534;49.960;8.018;2023-10-13T04:16:20;17.50;99.90
6988;DHT22;3534;49.960;8.018;2023-10-13T04:19:03;17.60;99.90
6988;DHT22;3534;49.960;8.018;2023-10-13T04:21:45;17.60;99.90
6988;DHT22;3534;49.960;8.018;2023-10-13T04:24:25;17.60;99.90
6988;DHT22;3534;49.960;8.018;2023-10-13T04:27:25;17.50;99.90
6988;DHT22;3534;49.960;8.018;2023-10-13T04:30:18;17.60;99.90
6988;DHT22;3534;49.960;8.018;2023-10-13T04:32:52;17.50;99.90
6988;DHT22;3534;49.960;8.018;2023-10-13T04:36:01;17.50;99.90
6988;DHT22;3534;49.960;8.018;2023-10-13T04:38:39;17.50;99.90
6988;DHT22;3534;49.960;8.018;2023-10-13T04:41:24;17.50;99.90
6988;DHT22;3534;49.960;8.018;2023-10-13T04:43:50;17.50;99.90
6988;DHT22;3534;49.960;8.018;2023-10-13T04:46:23;17.50;99.90
6988;DHT22;3534;49.960;8.018;2023-10-13T04:49:01;17.50;99.90
6988;DHT22;3534;49.960;8.018;2023-10-13T04:51:36;17.50;99.90
6988;DHT22;3534;49.960;8.018;2023-10-13T04:54:15;17.50;99.90
6988;DHT22;3534;49.960;8.018;2023-10-13T04:56:53;17.50;99.90
6988;DHT22;3534;49.960;8.018;2023-10-13T04:59:41;17.50;99.90
6988;DHT22;3534;49.960;8.018;2023-10-13T05:02:21;17.40;99.90
6988;DHT22;3534;49.960;8.018;2023-10-13T05:05:09;17.40;99.90
6988;DHT22;3534;49.960;8.018;2023-10-13T05:08:08;17.40;99.90
6988;DHT22;3534;49.960;8.018;2023-10-13T05:10:52;17.40;99.90
6988;DHT22;3534;49.960;8.018;2023-10-13T05:13:37;17.40;99.90
6988;DHT22;3534;49.960;8.018;2023-10-13T05:16:22;17.40;99.90
6988;DHT22;3534;49.960;8.018;2023-10-13T05:19:02;17.40;99.90
6988;DHT22;3534;49.960;8.018;2023-10-13T05:21:46;17.40;99.90
6988;DHT22;3534;49.960;8.018;2023-10-13T05:24:31;17.40;99.90
6988;DHT22;3534;49.960;8.018;2023-10-13T05:27:17;17.30;99.90
6988;DHT22;3534;49.960;8.018;2023-10-13T05:30:03;17.30;99.90
6988;DHT22;3534;49.960;8.018;2023-10-13T05:32:47;17.30;99.90
6988;DHT22;3534;49.960;8.018;2023-10-13T05:35:31;17.30;99.90
6988;DHT22;3534;49.960;8.018;2023-10-13T05:38:15;17.30;99.90
6988;DHT22;3534;49.960;8.018;2023-10-13T05:41:01;17.40;99.90
6988;DHT22;3534;49.960;8.018;2023-10-13T05:43:46;17.40;99.90
6988;DHT22;3534;49.960;8.018;2023-10-13T05:46:32;17.40;99.90
6988;DHT22;3534;49.960;8.018;2023-10-13T05:49:14;17.40;99.90
6988;DHT22;3534;49.960;8.018;2023-10-13T05:52:06;17.40;99.90
6988;DHT22;3534;49.960;8.018;2023-10-13T05:54:46;17.40;99.90
6988;DHT22;3534;49.960;8.018;2023-10-13T05:57:31;17.40;99.90
6988;DHT22;3534;49.960;8.018;2023-10-13T06:00:16;17.30;99.90
6988;DHT22;3534;49.960;8.018;2023-10-13T06:03:01;17.30;99.90
6988;DHT22;3534;49.960;8.018;2023-10-13T06:05:47;17.30;99.90
6988;DHT22;3534;49.960;8.018;2023-10-13T06:08:31;17.30;99.90
6988;DHT22;3534;49.960;8.018;2023-10-13T06:11:21;17.30;99.90
6988;DHT22;3534;49.960;8.018;2023-10-13T06:14:05;17.30;99.90
6988;DHT22;3534;49.960;8.018;2023-10-13T06:16:49;17.30;99.90
6988;DHT22;3534;49.960;8.018;2023-10-13T06:19:34;17.30;99.90
6988;DHT22;3534;49.960;8.018;2023-10-13T06:22:18;17.40;99.90
6988;DHT22;3534;49.960;8.018;2023-10-13T06:25:03;17.40;99.90
6988;DHT22;3534;49.960;8.018;2023-10-13T06:27:47;17.40;99.90
6988;DHT22;3534;49.960;8.018;2023-10-13T06:30:31;17.40;99.90
6988;DHT22;3534;49.960;8.018;2023-10-13T06:32:58;17.40;99.90
6988;DHT22;3534;49.960;8.018;2023-10-13T06:35:27;17.50;99.90
6988;DHT22;3534;49.960;8.018;2023-10-13T06:37:54;17.50;99.90
6988;DHT22;3534;49.960;8.018;2023-10-13T06:40:25;17.50;99.90
6988;DHT22;3534;49.960;8.018;2023-10-13T06:42:59;17.50;99.90
6988;DHT22;3534;49.960;8.018;2023-10-13T06:45:38;17.50;99.90
6988;DHT22;3534;49.960;8.018;2023-10-13T06:48:06;17.50;99.90
6988;DHT22;3534;49.960;8.018;2023-10-13T06:50:37;17.50;99.90
6988;DHT22;3534;49.960;8.018;2023-10-13T06:53:07;17.50;99.90
6988;DHT22;3534;49.960;8.018;2023-10-13T06:55:37;17.60;99.90
6988;DHT22;3534;49.960;8.018;2023-10-13T06:58:05;17.60;99.90
6988;DHT22;3534;49.960;8.018;2023-10-13T07:00:32;17.60;99.90
6988;DHT22;3534;49.960;8.018;2023-10-13T07:03:00;17.70;99.90
6988;DHT22;3534;49.960;8.018;2023-10-13T07:05:35;17.70;99.90
6988;DHT22;3534;49.960;8.018;2023-10-13T07:08:05;17.70;99.90
6988;DHT22;3534;49.960;8.018;2023-10-13T07:10:32;17.70;99.90
6988;DHT22;3534;49.960;8.018;2023-10-13T07:13:10;17.70;99.90
6988;DHT22;3534;49.960;8.018;2023-10-13T07:15:39;17.80;99.90
6988;DHT22;3534;49.960;8.018;2023-10-13T07:18:11;17.80;99.90
6988;DHT22;3534;49.960;8.018;2023-10-13T07:20:39;17.80;99.90
6988;DHT22;3534;49.960;8.018;2023-10-13T07:23:11;17.80;99.90
6988;DHT22;3534;49.960;8.018;2023-10-13T07:25:51;17.80;99.90
6988;DHT22;3534;49.960;8.018;2023-10-13T07:28:18;17.80;99.90
6988;DHT22;3534;49.960;8.018;2023-10-13T07:30:45;17.90;99.90
6988;DHT22;3534;49.960;8.018;2023-10-13T07:33:36;18.00;99.90
6988;DHT22;3534;49.960;8.018;2023-10-13T07:36:07;18.00;99.90
6988;DHT22;3534;49.960;8.018;2023-10-13T07:38:42;18.10;99.90
6988;DHT22;3534;49.960;8.018;2023-10-13T07:41:09;18.20;99.90
6988;DHT22;3534;49.960;8.018;2023-10-13T07:43:41;18.30;99.90
6988;DHT22;3534;49.960;8.018;2023-10-13T07:46:08;18.30;99.90
6988;DHT22;3534;49.960;8.018;2023-10-13T07:48:36;18.30;99.90
6988;DHT22;3534;49.960;8.018;2023-10-13T07:51:05;18.40;99.90
6988;DHT22;3534;49.960;8.018;2023-10-13T07:53:36;18.40;99.90
6988;DHT22;3534;49.960;8.018;2023-10-13T07:56:06;18.30;99.90
6988;DHT22;3534;49.960;8.018;2023-10-13T07:58:34;18.40;99.90
6988;DHT22;3534;49.960;8.018;2023-10-13T08:01:01;18.30;99.90
6988;DHT22;3534;49.960;8.018;2023-10-13T08:03:34;18.30;99.90
6988;DHT22;3534;49.960;8.018;2023-10-13T08:06:11;18.30;99.90
6988;DHT22;3534;49.960;8.018;2023-10-13T08:08:51;18.30;99.90
6988;DHT22;3534;49.960;8.018;2023-10-13T08:11:21;18.30;99.90
6988;DHT22;3534;49.960;8.018;2023-10-13T08:13:53;18.30;99.90
6988;DHT22;3534;49.960;8.018;2023-10-13T08:16:21;18.30;99.90
6988;DHT22;3534;49.960;8.018;2023-10-13T08:18:49;18.40;99.90
6988;DHT22;3534;49.960;8.018;2023-10-13T08:21:16;18.40;99.90
6988;DHT22;3534;49.960;8.018;2023-10-13T08:23:48;18.50;99.90
6988;DHT22;3534;49.960;8.018;2023-10-13T08:26:28;18.60;99.90
6988;DHT22;3534;49.960;8.018;2023-10-13T08:29:23;18.70;99.90
6988;DHT22;3534;49.960;8.018;2023-10-13T08:32:08;18.80;99.90
6988;DHT22;3534;49.960;8.018;2023-10-13T08:34:49;18.80;99.90
6988;DHT22;3534;49.960;8.018;2023-10-13T08:37:48;18.90;99.90
6988;DHT22;3534;49.960;8.018;2023-10-13T08:40:27;19.00;99.90
6988;DHT22;3534;49.960;8.018;2023-10-13T08:43:12;19.00;99.90
6988;DHT22;3534;49.960;8.018;2023-10-13T08:45:40;19.10;99.90
6988;DHT22;3534;49.960;8.018;2023-10-13T08:48:19;19.10;99.90
6988;DHT22;3534;49.960;8.018;2023-10-13T08:50:52;19.10;99.90
6988;DHT22;3534;49.960;8.018;2023-10-13T08:53:22;19.10;99.90
6988;DHT22;3534;49.960;8.018;2023-10-13T08:55:58;19.20;99.90
6988;DHT22;3534;49.960;8.018;2023-10-13T08:58:34;19.20;99.90
6988;DHT22;3534;49.960;8.018;2023-10-13T09:01:20;19.20;99.90
6988;DHT22;3534;49.960;8.018;2023-10-13T09:04:07;19.30;99.90
6988;DHT22;3534;49.960;8.018;2023-10-13T09:06:50;19.30;99.90
6988;DHT22;3534;49.960;8.018;2023-10-13T09:09:47;19.40;99.90
6988;DHT22;3534;49.960;8.018;2023-10-13T09:12:26;19.40;99.90
6988;DHT22;3534;49.960;8.018;2023-10-13T09:15:07;19.50;99.90
6988;DHT22;3534;49.960;8.018;2023-10-13T09:17:45;19.60;99.90
6988;DHT22;3534;49.960;8.018;2023-10-13T09:20:27;19.60;99.90
6988;DHT22;3534;49.960;8.018;2023-10-13T09:22:58;19.70;99.90
6988;DHT22;3534;49.960;8.018;2023-10-13T09:25:34;19.70;99.90
6988;DHT22;3534;49.960;8.018;2023-10-13T09:28:02;19.70;99.90
6988;DHT22;3534;49.960;8.018;2023-10-13T09:30:43;19.70;99.90
6988;DHT22;3534;49.960;8.018;2023-10-13T09:33:10;19.80;99.90
6988;DHT22;3534;49.960;8.018;2023-10-13T09:35:43;19.90;99.90
6988;DHT22;3534;49.960;8.018;2023-10-13T09:38:15;20.00;99.90
6988;DHT22;3534;49.960;8.018;2023-10-13T09:40:42;20.10;99.90
6988;DHT22;3534;49.960;8.018;2023-10-13T09:43:16;20.20;99.90
6988;DHT22;3534;49.960;8.018;2023-10-13T09:45:46;20.20;99.90
6988;DHT22;3534;49.960;8.018;2023-10-13T09:48:31;20.30;99.90
6988;DHT22;3534;49.960;8.018;2023-10-13T09:51:01;20.40;99.90
6988;DHT22;3534;49.960;8.018;2023-10-13T09:53:29;20.50;99.90
6988;DHT22;3534;49.960;8.018;2023-10-13T09:56:00;20.60;99.90
6988;DHT22;3534;49.960;8.018;2023-10-13T09:58:38;20.70;99.90
6988;DHT22;3534;49.960;8.018;2023-10-13T10:01:16;20.80;99.90
6988;DHT22;3534;49.960;8.018;2023-10-13T10:03:46;20.90;99.90
6988;DHT22;3534;49.960;8.018;2023-10-13T10:06:21;21.00;99.90
6988;DHT22;3534;49.960;8.018;2023-10-13T10:09:04;21.10;99.90
6988;DHT22;3534;49.960;8.018;2023-10-13T10:12:01;21.20;99.90
6988;DHT22;3534;49.960;8.018;2023-10-13T10:14:56;21.30;99.90
6988;DHT22;3534;49.960;8.018;2023-10-13T10:17:28;21.30;99.90
6988;DHT22;3534;49.960;8.018;2023-10-13T10:19:58;21.40;99.90
6988;DHT22;3534;49.960;8.018;2023-10-13T10:22:33;21.50;99.90
6988;DHT22;3534;49.960;8.018;2023-10-13T10:25:02;21.60;99.90
6988;DHT22;3534;49.960;8.018;2023-10-13T10:27:30;21.70;99.90
6988;DHT22;3534;49.960;8.018;2023-10-13T10:29:58;21.80;99.90
6988;DHT22;3534;49.960;8.018;2023-10-13T10:32:38;21.80;99.90
6988;DHT22;3534;49.960;8.018;2023-10-13T10:35:08;21.90;99.90
6988;DHT22;3534;49.960;8.018;2023-10-13T10:37:40;21.90;99.90
6988;DHT22;3534;49.960;8.018;2023-10-13T10:40:13;21.90;99.90
6988;DHT22;3534;49.960;8.018;2023-10-13T10:42:59;22.00;99.90
6988;DHT22;3534;49.960;8.018;2023-10-13T10:45:26;22.10;99.90
6988;DHT22;3534;49.960;8.018;2023-10-13T10:47:59;22.10;99.90
6988;DHT22;3534;49.960;8.018;2023-10-13T10:50:42;22.30;99.90
6988;DHT22;3534;49.960;8.018;2023-10-13T10:53:09;22.50;99.90
6988;DHT22;3534;49.960;8.018;2023-10-13T10:55:36;22.70;99.90
6988;DHT22;3534;49.960;8.018;2023-10-13T10:58:03;22.80;99.90
6988;DHT22;3534;49.960;8.018;2023-10-13T11:00:32;22.90;99.90
6988;DHT22;3534;49.960;8.018;2023-10-13T11:03:12;23.00;99.90
6988;DHT22;3534;49.960;8.018;2023-10-13T11:05:43;23.10;99.90
6988;DHT22;3534;49.960;8.018;2023-10-13T11:08:21;23.20;99.90
6988;DHT22;3534;49.960;8.018;2023-10-13T11:10:57;23.30;99.90
6988;DHT22;3534;49.960;8.018;2023-10-13T11:13:23;23.40;99.90
6988;DHT22;3534;49.960;8.018;2023-10-13T11:15:56;23.40;99.90
6988;DHT22;3534;49.960;8.018;2023-10-13T11:18:30;23.50;99.90
6988;DHT22;3534;49.960;8.018;2023-10-13T11:21:02;23.60;99.90
6988;DHT22;3534;49.960;8.018;2023-10-13T11:23:32;23.60;99.90
6988;DHT22;3534;49.960;8.018;2023-10-13T11:26:02;23.60;99.90
6988;DHT22;3534;49.960;8.018;2023-10-13T11:28:29;23.60;99.90
6988;DHT22;3534;49.960;8.018;2023-10-13T11:30:59;23.60;99.90
6988;DHT22;3534;49.960;8.018;2023-10-13T11:33:43;23.70;99.90
6988;DHT22;3534;49.960;8.018;2023-10-13T11:36:14;23.70;99.90
6988;DHT22;3534;49.960;8.018;2023-10-13T11:38:43;23.70;99.90
6988;DHT22;3534;49.960;8.018;2023-10-13T11:41:15;23.70;99.90
6988;DHT22;3534;49.960;8.018;2023-10-13T11:43:45;23.70;99.90
6988;DHT22;3534;49.960;8.018;2023-10-13T11:46:29;23.70;99.90
6988;DHT22;3534;49.960;8.018;2023-10-13T11:49:15;23.70;99.90
6988;DHT22;3534;49.960;8.018;2023-10-13T11:51:46;23.80;99.90
6988;DHT22;3534;49.960;8.018;2023-10-13T11:54:13;23.70;99.90
6988;DHT22;3534;49.960;8.018;2023-10-13T11:56:40;23.70;99.90
6988;DHT22;3534;49.960;8.018;2023-10-13T11:59:07;23.70;99.90
6988;DHT22;3534;49.960;8.018;2023-10-13T12:01:42;23.70;99.90
6988;DHT22;3534;49.960;8.018;2023-10-13T12:04:25;23.70;99.90
6988;DHT22;3534;49.960;8.018;2023-10-13T12:07:06;23.80;99.90
6988;DHT22;3534;49.960;8.018;2023-10-13T12:09:43;23.80;99.90
6988;DHT22;3534;49.960;8.018;2023-10-13T12:12:29;23.80;99.90
6988;DHT22;3534;49.960;8.018;2023-10-13T12:14:56;23.80;99.90
6988;DHT22;3534;49.960;8.018;2023-10-13T12:17:24;23.80;99.90
6988;DHT22;3534;49.960;8.018;2023-10-13T12:19:58;23.80;99.90
6988;DHT22;3534;49.960;8.018;2023-10-13T12:22:25;23.80;99.90
6988;DHT22;3534;49.960;8.018;2023-10-13T12:24:54;23.80;99.90
6988;DHT22;3534;49.960;8.018;2023-10-13T12:27:21;23.90;99.90
6988;DHT22;3534;49.960;8.018;2023-10-13T12:29:53;23.90;99.90
6988;DHT22;3534;49.960;8.018;2023-10-13T12:32:22;23.90;99.90
6988;DHT22;3534;49.960;8.018;2023-10-13T12:34:51;23.90;99.90
6988;DHT22;3534;49.960;8.018;2023-10-13T12:37:28;23.90;99.90
6988;DHT22;3534;49.960;8.018;2023-10-13T12:40:13;23.90;99.90
6988;DHT22;3534;49.960;8.018;2023-10-13T12:42:58;23.90;99.90
6988;DHT22;3534;49.960;8.018;2023-10-13T12:45:43;24.00;99.90
6988;DHT22;3534;49.960;8.018;2023-10-13T12:48:28;24.00;99.90
6988;DHT22;3534;49.960;8.018;2023-10-13T12:51:12;24.00;99.90
6988;DHT22;3534;49.960;8.018;2023-10-13T12:53:47;24.10;99.90
6988;DHT22;3534;49.960;8.018;2023-10-13T12:56:15;24.20;99.90
6988;DHT22;3534;49.960;8.018;2023-10-13T12:58:42;24.30;99.90
6988;DHT22;3534;49.960;8.018;2023-10-13T13:01:17;24.40;99.90
6988;DHT22;3534;49.960;8.018;2023-10-13T13:03:46;24.60;99.90
6988;DHT22;3534;49.960;8.018;2023-10-13T13:06:17;24.70;99.90
6988;DHT22;3534;49.960;8.018;2023-10-13T13:08:51;24.90;99.90
6988;DHT22;3534;49.960;8.018;2023-10-13T13:11:18;25.20;99.90
6988;DHT22;3534;49.960;8.018;2023-10-13T13:13:46;25.60;99.90
6988;DHT22;3534;49.960;8.018;2023-10-13T13:16:13;25.90;99.90
6988;DHT22;3534;49.960;8.018;2023-10-13T13:18:40;26.30;99.90
6988;DHT22;3534;49.960;8.018;2023-10-13T13:21:08;26.60;99.90
6988;DHT22;3534;49.960;8.018;2023-10-13T13:23:37;26.90;99.90
6988;DHT22;3534;49.960;8.018;2023-10-13T13:26:06;27.30;99.90
6988;DHT22;3534;49.960;8.018;2023-10-13T13:28:41;27.60;99.90
6988;DHT22;3534;49.960;8.018;2023-10-13T13:31:08;27.90;99.90
6988;DHT22;3534;49.960;8.018;2023-10-13T13:33:34;28.20;99.90
6988;DHT22;3534;49.960;8.018;2023-10-13T13:36:04;28.40;99.90
6988;DHT22;3534;49.960;8.018;2023-10-13T13:38:31;28.60;99.90
6988;DHT22;3534;49.960;8.018;2023-10-13T13:40:58;28.70;99.90
6988;DHT22;3534;49.960;8.018;2023-10-13T13:43:28;28.80;99.90
6988;DHT22;3534;49.960;8.018;2023-10-13T13:46:03;28.90;99.90
6988;DHT22;3534;49.960;8.018;2023-10-13T13:48:35;29.00;99.90
6988;DHT22;3534;49.960;8.018;2023-10-13T13:53:31;29.20;99.90
6988;DHT22;3534;49.960;8.018;2023-10-13T13:56:01;29.30;99.90
6988;DHT22;3534;49.960;8.018;2023-10-13T13:58:29;29.40;99.90
6988;DHT22;3534;49.960;8.018;2023-10-13T14:01:00;29.50;99.90
6988;DHT22;3534;49.960;8.018;2023-10-13T14:03:38;29.50;99.90
6988;DHT22;3534;49.960;8.018;2023-10-13T14:06:10;29.50;99.90
6988;DHT22;3534;49.960;8.018;2023-10-13T14:08:42;29.50;99.90
6988;DHT22;3534;49.960;8.018;2023-10-13T14:11:10;29.50;99.90
6988;DHT22;3534;49.960;8.018;2023-10-13T14:13:48;29.40;99.90
6988;DHT22;3534;49.960;8.018;2023-10-13T14:16:15;29.30;99.90
6988;DHT22;3534;49.960;8.018;2023-10-13T14:18:45;29.20;99.90
6988;DHT22;3534;49.960;8.018;2023-10-13T14:21:13;29.00;99.90
6988;DHT22;3534;49.960;8.018;2023-10-13T14:23:44;28.90;99.90
6988;DHT22;3534;49.960;8.018;2023-10-13T14:26:12;28.80;99.90
6988;DHT22;3534;49.960;8.018;2023-10-13T14:28:39;28.50;99.90
6988;DHT22;3534;49.960;8.018;2023-10-13T14:31:17;28.40;99.90
6988;DHT22;3534;49.960;8.018;2023-10-13T14:33:45;28.20;99.90
6988;DHT22;3534;49.960;8.018;2023-10-13T14:36:12;28.10;99.90
6988;DHT22;3534;49.960;8.018;2023-10-13T14:38:42;28.10;99.90
6988;DHT22;3534;49.960;8.018;2023-10-13T14:41:10;28.20;99.90
6988;DHT22;3534;49.960;8.018;2023-10-13T14:43:36;28.40;99.90
6988;DHT22;3534;49.960;8.018;2023-10-13T14:46:08;28.60;99.90
6988;DHT22;3534;49.960;8.018;2023-10-13T14:48:35;28.80;99.90
6988;DHT22;3534;49.960;8.018;2023-10-13T14:51:04;29.00;99.90
6988;DHT22;3534;49.960;8.018;2023-10-13T14:53:34;29.10;99.90
6988;DHT22;3534;49.960;8.018;2023-10-13T14:56:01;29.20;99.90
6988;DHT22;3534;49.960;8.018;2023-10-13T14:58:30;29.30;99.90
6988;DHT22;3534;49.960;8.018;2023-10-13T15:00:57;29.20;99.90
6988;DHT22;3534;49.960;8.018;2023-10-13T15:03:25;29.00;99.90
6988;DHT22;3534;49.960;8.018;2023-10-13T15:05:53;28.70;99.90
6988;DHT22;3534;49.960;8.018;2023-10-13T15:08:20;28.40;99.90
6988;DHT22;3534;49.960;8.018;2023-10-13T15:10:47;28.20;99.90
6988;DHT22;3534;49.960;8.018;2023-10-13T15:13:13;28.00;99.90
6988;DHT22;3534;49.960;8.018;2023-10-13T15:15:41;27.80;99.90
6988;DHT22;3534;49.960;8.018;2023-10-13T15:18:08;27.60;99.90
6988;DHT22;3534;49.960;8.018;2023-10-13T15:20:39;27.50;99.90
6988;DHT22;3534;49.960;8.018;2023-10-13T15:23:10;27.30;99.90
6988;DHT22;3534;49.960;8.018;2023-10-13T15:25:40;27.20;99.90
6988;DHT22;3534;49.960;8.018;2023-10-13T15:28:14;27.00;99.90
6988;DHT22;3534;49.960;8.018;2023-10-13T15:30:46;26.90;99.90
6988;DHT22;3534;49.960;8.018;2023-10-13T15:33:21;26.80;99.90
6988;DHT22;3534;49.960;8.018;2023-10-13T15:35:47;26.80;99.90
6988;DHT22;3534;49.960;8.018;2023-10-13T15:38:15;26.60;99.90
6988;DHT22;3534;49.960;8.018;2023-10-13T15:40:42;26.50;99.90
6988;DHT22;3534;49.960;8.018;2023-10-13T15:43:09;26.50;99.90
6988;DHT22;3534;49.960;8.018;2023-10-13T15:45:36;26.40;99.90
6988;DHT22;3534;49.960;8.018;2023-10-13T15:48:06;26.30;99.90
6988;DHT22;3534;49.960;8.018;2023-10-13T15:50:36;26.30;99.90
6988;DHT22;3534;49.960;8.018;2023-10-13T15:53:04;26.20;99.90
6988;DHT22;3534;49.960;8.018;2023-10-13T15:55:34;26.10;99.90
6988;DHT22;3534;49.960;8.018;2023-10-13T15:58:01;26.00;99.90
6988;DHT22;3534;49.960;8.018;2023-10-13T16:00:28;26.00;99.90
6988;DHT22;3534;49.960;8.018;2023-10-13T16:02:56;25.90;99.90
6988;DHT22;3534;49.960;8.018;2023-10-13T16:05:23;25.80;99.90
6988;DHT22;3534;49.960;8.018;2023-10-13T16:07:51;25.80;99.90
6988;DHT22;3534;49.960;8.018;2023-10-13T16:10:21;25.60;99.90
6988;DHT22;3534;49.960;8.018;2023-10-13T16:12:49;25.60;99.90
6988;DHT22;3534;49.960;8.018;2023-10-13T16:15:16;25.60;99.90
6988;DHT22;3534;49.960;8.018;2023-10-13T16:17:44;25.50;99.90
6988;DHT22;3534;49.960;8.018;2023-10-13T16:20:10;25.50;99.90
6988;DHT22;3534;49.960;8.018;2023-10-13T16:22:42;25.40;99.90
6988;DHT22;3534;49.960;8.018;2023-10-13T16:25:10;25.40;99.90
6988;DHT22;3534;49.960;8.018;2023-10-13T16:27:38;25.30;99.90
6988;DHT22;3534;49.960;8.018;2023-10-13T16:30:11;25.20;99.90
6988;DHT22;3534;49.960;8.018;2023-10-13T16:32:41;25.20;99.90
6988;DHT22;3534;49.960;8.018;2023-10-13T16:35:12;25.20;99.90
6988;DHT22;3534;49.960;8.018;2023-10-13T16:37:43;25.10;99.90
6988;DHT22;3534;49.960;8.018;2023-10-13T16:40:11;25.10;99.90
6988;DHT22;3534;49.960;8.018;2023-10-13T16:42:40;25.00;99.90
6988;DHT22;3534;49.960;8.018;2023-10-13T16:45:09;24.90;99.90